Time;durP1;ratioP1;P1;durP2;ratioP2;P2;SDS_P1;SDS_P2;PMS_P1;PMS_P2;Temp;Humidity;BMP_temperature;BMP_pressure;BME280_temperature;BME280_humidity;BME280_pressure;Samples;Min_cycle;Max_cycle;Signal;HPM_P1;HPM_P2
2023/07/10 00:02:14;;;;;;;;;16.67;16.67;;;;;19.79;72.25;99939.41;6286440;20;3569018;-47
2023/07/10 00:04:42;;;;;;;;;20.67;18.67;;;;;20.04;72.36;99931.59;6283822;20;3570095;-51
2023/07/10 00:07:10;;;;;;;;;19.00;18.50;;;;;19.94;72.02;99927.03;6278803;20;2819005;-51
2023/07/10 00:09:38;;;;;;;;;15.00;15.00;;;;;19.93;72.25;99924.44;6284609;20;2491959;-47
2023/07/10 00:12:14;;;;;;;;;18.33;18.33;;;;;19.77;73.03;99932.38;6285254;20;3561728;-50
2023/07/10 00:14:42;;;;;;;;;17.67;17.67;;;;;19.60;73.48;99939.44;6281436;20;3553414;-50
2023/07/10 00:17:11;;;;;;;;;20.00;19.00;;;;;19.38;75.63;99936.03;6313748;20;3567587;-49
2023/07/10 00:19:41;;;;;;;;;22.33;19.00;;;;;19.53;75.48;99923.66;6280528;20;3578379;-46
2023/07/10 00:22:09;;;;;;;;;21.33;20.00;;;;;19.53;74.63;99926.38;6285314;20;3556507;-50
2023/07/10 00:24:37;;;;;;;;;23.00;20.33;;;;;19.18;77.35;99929.72;6311697;20;3581507;-50
2023/07/10 00:27:12;;;;;;;;;19.00;18.50;;;;;19.13;78.37;99933.88;6281051;20;2821213;-47
2023/07/10 00:29:40;;;;;;;;;22.00;18.00;;;;;19.25;78.22;99930.03;6280722;20;2832536;-53
2023/07/10 00:32:12;;;;;;;;;23.00;21.67;;;;;19.44;78.07;99932.72;6285380;20;3577380;-47
2023/07/10 00:34:41;;;;;;;;;19.00;19.00;;;;;19.49;78.08;99940.47;6282118;20;2837853;-47
2023/07/10 00:37:10;;;;;;;;;19.67;17.00;;;;;19.25;77.94;99940.91;6283573;20;3567969;-48
2023/07/10 00:39:38;;;;;;;;;21.33;17.00;;;;;18.87;79.88;99937.16;6285073;20;3569005;-50
2023/07/10 00:42:14;;;;;;;;;18.67;18.67;;;;;18.68;81.58;99937.09;6285623;20;3546362;-49
2023/07/10 00:44:51;;;;;;;;;21.00;21.00;;;;;18.56;82.35;99933.63;6312896;20;3580500;-50
2023/07/10 00:47:36;;;;;;;;;22.00;20.00;;;;;18.28;83.56;99938.00;6280054;20;3579518;-49
2023/07/10 00:50:35;;;;;;;;;18.67;17.33;;;;;18.25;83.71;99936.41;6282679;20;3564996;-47
2023/07/10 00:53:14;;;;;;;;;20.67;20.00;;;;;17.75;86.12;99934.44;6279807;20;3577375;-48
2023/07/10 00:55:44;;;;;;;;;18.00;18.00;;;;;18.21;84.37;99937.69;6282284;20;3556069;-48
2023/07/10 00:58:37;;;;;;;;;20.50;19.00;;;;;18.29;83.34;99931.56;6309719;20;2834708;-48
2023/07/10 01:01:15;;;;;;;;;21.00;19.00;;;;;18.23;83.95;99926.69;6280813;20;2833643;-51
2023/07/10 01:03:45;;;;;;;;;23.67;22.00;;;;;18.03;85.39;99926.59;6317016;20;3594060;-48
2023/07/10 01:06:22;;;;;;;;;23.00;21.67;;;;;17.76;86.63;99929.84;6283342;20;3583731;-51
2023/07/10 01:09:03;;;;;;;;;20.00;19.00;;;;;17.76;87.01;99928.00;6281534;20;3579403;-51
2023/07/10 01:11:36;;;;;;;;;20.00;20.00;;;;;17.59;88.52;99934.06;6280891;20;3576285;-45
2023/07/10 01:14:08;;;;;;;;;23.00;22.67;;;;;17.95;85.83;99929.13;6275860;20;3585744;-50
2023/07/10 01:16:37;;;;;;;;;24.33;21.33;;;;;17.95;85.65;99932.69;6281427;20;3594117;-48
2023/07/10 01:19:19;;;;;;;;;22.00;21.67;;;;;18.12;86.06;99924.94;6284581;20;3578375;-48
2023/07/10 01:21:50;;;;;;;;;26.67;24.33;;;;;18.13;86.71;99932.94;6278975;20;3598249;-47
2023/07/10 01:24:19;;;;;;;;;23.67;23.67;;;;;18.05;86.78;99930.03;6315409;20;3591924;-47
2023/07/10 01:26:47;;;;;;;;;22.00;22.00;;;;;17.93;87.52;99932.00;6282260;20;3585796;-50
2023/07/10 01:29:35;;;;;;;;;22.33;21.33;;;;;17.78;87.86;99938.75;6283090;20;3588811;-53
2023/07/10 01:32:05;;;;;;;;;24.33;21.33;;;;;18.15;86.65;99939.09;6280526;20;3614903;-55
2023/07/10 01:34:45;;;;;;;;;22.00;22.00;;;;;17.89;87.83;99935.97;6283113;20;3585723;-52
2023/07/10 01:37:13;;;;;;;;;21.00;21.00;;;;;17.96;87.29;99933.59;6281178;20;3578555;-55
2023/07/10 01:39:48;;;;;;;;;18.50;18.50;;;;;18.47;83.91;99940.78;6276955;20;2833659;-53
2023/07/10 01:42:17;;;;;;;;;22.00;19.67;;;;;18.53;83.58;99940.19;6278074;20;3576591;-51
2023/07/10 01:44:49;;;;;;;;;22.67;21.67;;;;;18.51;83.92;99934.06;6275857;20;3589968;-53
2023/07/10 01:47:17;;;;;;;;;22.33;21.33;;;;;18.49;85.30;99936.06;6277323;20;3590993;-52
2023/07/10 01:49:56;;;;;;;;;22.00;20.33;;;;;18.25;86.42;99943.72;6280292;20;3581529;-50
2023/07/10 01:52:25;;;;;;;;;25.00;25.00;;;;;18.31;86.70;99935.00;6275179;20;3586997;-52
2023/07/10 01:54:53;;;;;;;;;25.00;25.00;;;;;18.30;86.31;99930.53;6280290;20;3587879;-49
2023/07/10 01:57:26;;;;;;;;;25.00;22.33;;;;;18.41;86.20;99936.75;6281285;20;3600441;-48
2023/07/10 01:59:54;;;;;;;;;17.50;17.50;;;;;18.39;87.13;99941.47;6280250;20;2823257;-47
2023/07/10 02:02:22;;;;;;;;;23.00;22.67;;;;;18.26;86.84;99942.72;6279036;20;3598269;-48
2023/07/10 02:04:51;;;;;;;;;26.33;25.33;;;;;18.27;88.30;99936.25;6280842;20;3597166;-49
2023/07/10 02:07:19;;;;;;;;;25.00;25.00;;;;;18.34;87.56;99934.72;6280073;20;3598190;-51
2023/07/10 02:09:47;;;;;;;;;26.67;24.67;;;;;18.17;87.88;99928.09;6282970;20;3602335;-48
2023/07/10 02:12:15;;;;;;;;;24.67;23.33;;;;;18.33;88.27;99930.28;6280153;20;3596336;-52
2023/07/10 02:14:45;;;;;;;;;22.67;21.33;;;;;18.31;87.08;99935.84;6281841;20;3597163;-47
2023/07/10 02:17:13;;;;;;;;;24.00;22.67;;;;;18.27;87.29;99934.41;6279424;20;3588860;-50
2023/07/10 02:19:41;;;;;;;;;24.67;24.67;;;;;18.05;88.33;99929.19;6284100;20;3600856;-51
2023/07/10 02:22:10;;;;;;;;;25.67;24.00;;;;;17.82;88.89;99933.91;6281677;20;3596095;-47
2023/07/10 02:24:41;;;;;;;;;24.00;24.00;;;;;17.77;90.16;99928.84;6283623;20;3586710;-48
2023/07/10 02:27:10;;;;;;;;;23.33;21.33;;;;;17.81;88.96;99933.06;6278868;20;2849302;-50
2023/07/10 02:29:39;;;;;;;;;20.00;20.00;;;;;17.39;90.50;99933.06;6311746;20;2837773;-49
2023/07/10 02:32:08;;;;;;;;;25.33;22.33;;;;;17.34;92.07;99933.44;6312048;20;3587843;-51
2023/07/10 02:34:36;;;;;;;;;20.33;20.33;;;;;17.52;90.42;99927.44;6284353;20;3588201;-52
2023/07/10 02:37:04;;;;;;;;;23.00;22.00;;;;;17.65;89.79;99929.94;6282418;20;3531533;-53
2023/07/10 02:39:33;;;;;;;;;21.00;21.00;;;;;17.83;88.83;99935.66;6310998;20;3574204;-51
2023/07/10 02:42:01;;;;;;;;;23.33;20.00;;;;;17.82;88.77;99932.06;6283798;20;3576325;-52
2023/07/10 02:44:30;;;;;;;;;23.67;23.00;;;;;18.06;87.83;99931.78;6281660;20;3591915;-49
2023/07/10 02:46:58;;;;;;;;;18.50;16.50;;;;;17.92;88.27;99937.56;6279592;20;2834669;-49
2023/07/10 02:49:26;;;;;;;;;19.33;19.33;;;;;17.83;89.52;99930.22;6281767;20;3576373;-48
2023/07/10 02:51:54;;;;;;;;;23.00;22.00;;;;;17.69;89.85;99928.66;6279421;20;3594110;-50
2023/07/10 02:54:22;;;;;;;;;23.67;22.00;;;;;17.67;91.07;99923.38;6282402;20;3598289;-49
2023/07/10 02:56:51;;;;;;;;;23.00;21.00;;;;;17.46;91.81;99923.41;6279463;20;3583590;-49
2023/07/10 02:59:19;;;;;;;;;21.00;19.50;;;;;17.30;93.45;99934.72;6278220;20;2829458;-50
2023/07/10 03:01:47;;;;;;;;;22.00;20.33;;;;;17.20;93.61;99927.50;6288273;20;3577366;-47
2023/07/10 03:04:15;;;;;;;;;23.33;20.33;;;;;17.30;92.70;99929.28;6288374;20;3581518;-52
2023/07/10 03:06:48;;;;;;;;;27.00;23.00;;;;;17.17;93.73;99925.03;6283952;20;3602825;-53
2023/07/10 03:09:16;;;;;;;;;25.33;22.33;;;;;17.05;93.86;99929.66;6288181;20;3594046;-51
2023/07/10 03:11:44;;;;;;;;;23.67;22.00;;;;;17.10;93.45;99930.13;6285949;20;3585720;-50
2023/07/10 03:14:12;;;;;;;;;19.67;19.67;;;;;17.02;94.72;99936.19;6283934;20;3567998;-46
2023/07/10 03:16:41;;;;;;;;;24.00;22.33;;;;;17.25;93.21;99925.25;6280766;20;2851390;-49
2023/07/10 03:19:10;;;;;;;;;26.00;23.67;;;;;17.30;92.60;99926.56;6315426;20;3602364;-53
2023/07/10 03:21:38;;;;;;;;;20.33;19.67;;;;;17.45;92.43;99926.22;6286200;20;3561714;-46
2023/07/10 03:24:06;;;;;;;;;24.00;21.00;;;;;17.70;91.03;99924.97;6285973;20;3591465;-51
2023/07/10 03:26:35;;;;;;;;;24.00;22.67;;;;;17.94;90.32;99932.84;6284189;20;3586839;-47
2023/07/10 03:29:09;;;;;;;;;22.67;21.00;;;;;17.91;90.82;99933.13;6316847;20;3587947;-49
2023/07/10 03:31:38;;;;;;;;;23.67;23.67;;;;;17.84;90.85;99937.38;6284639;20;3600335;-48
2023/07/10 03:34:07;;;;;;;;;29.67;24.00;;;;;17.71;92.63;99930.25;6285376;20;3596208;-53
2023/07/10 03:36:35;;;;;;;;;19.00;19.00;;;;;17.63;93.53;99930.06;6287321;20;3568123;-52
2023/07/10 03:39:04;;;;;;;;;22.00;21.00;;;;;17.46;94.41;99927.97;6283010;20;3579456;-48
2023/07/10 03:41:33;;;;;;;;;22.00;22.00;;;;;17.87;93.21;99926.22;6285748;20;3586909;-47
2023/07/10 03:44:02;;;;;;;;;24.67;23.67;;;;;17.93;91.54;99925.69;6280026;20;3587786;-48
2023/07/10 03:46:34;;;;;;;;;24.67;23.00;;;;;18.02;92.80;99924.88;6312603;20;3573282;-50
2023/07/10 03:49:03;;;;;;;;;22.00;21.67;;;;;17.98;93.52;99918.88;6286539;20;3593074;-47
2023/07/10 03:51:31;;;;;;;;;21.67;21.00;;;;;18.07;93.27;99921.75;6283420;20;3580543;-50
2023/07/10 03:53:59;;;;;;;;;25.33;22.00;;;;;18.29;92.13;99926.13;6283568;20;3584759;-47
2023/07/10 03:56:28;;;;;;;;;23.00;23.00;;;;;18.33;91.01;99922.13;6287310;20;3589851;-46
2023/07/10 03:58:57;;;;;;;;;21.00;21.00;;;;;18.16;92.59;99916.34;6283285;20;3574349;-49
2023/07/10 04:01:25;;;;;;;;;24.00;21.00;;;;;18.39;91.21;99930.59;6286357;20;3592186;-48
2023/07/10 04:03:53;;;;;;;;;22.67;21.67;;;;;18.46;92.17;99930.91;6284218;20;3586933;-52
2023/07/10 04:06:22;;;;;;;;;24.00;24.00;;;;;18.37;92.40;99926.28;6283875;20;3592954;-55
2023/07/10 04:08:50;;;;;;;;;24.00;22.33;;;;;18.49;92.22;99924.34;6286747;20;3588812;-55
2023/07/10 04:11:22;;;;;;;;;24.00;21.00;;;;;18.40;91.86;99923.28;6286745;20;3581529;-52
2023/07/10 04:13:50;;;;;;;;;27.67;23.67;;;;;18.57;92.01;99924.50;6284695;20;3594037;-53
2023/07/10 04:16:22;;;;;;;;;27.33;22.33;;;;;18.69;91.14;99923.34;6282927;20;3589842;-51
2023/07/10 04:18:53;;;;;;;;;24.00;22.67;;;;;18.78;89.81;99929.84;6287026;20;3592980;-51
2023/07/10 04:21:28;;;;;;;;;21.33;21.33;;;;;19.04;88.53;99927.44;6286381;20;3587784;-52
2023/07/10 04:23:56;;;;;;;;;22.67;22.67;;;;;19.29;86.93;99926.00;6287620;20;3583617;-51
2023/07/10 04:26:24;;;;;;;;;23.50;21.00;;;;;19.46;86.62;99929.84;6284439;20;3466079;-52
2023/07/10 04:28:56;;;;;;;;;24.33;21.67;;;;;19.44;86.17;99929.13;6314772;20;3600345;-49
2023/07/10 04:31:25;;;;;;;;;19.33;19.00;;;;;19.76;85.11;99926.09;6283696;20;3560810;-49
2023/07/10 04:33:55;;;;;;;;;20.67;19.67;;;;;19.93;83.77;99929.88;6283032;20;3572180;-48
2023/07/10 04:36:24;;;;;;;;;21.67;19.00;;;;;19.74;85.72;99922.63;6282962;20;3579420;-46
2023/07/10 04:38:52;;;;;;;;;21.33;21.33;;;;;20.13;83.18;99922.50;6285716;20;3587750;-48
2023/07/10 04:41:23;;;;;;;;;22.67;21.00;;;;;20.31;83.24;99928.03;6282682;20;3595055;-51
2023/07/10 04:43:52;;;;;;;;;20.00;20.00;;;;;20.35;84.38;99923.97;6279815;20;3569246;-50
2023/07/10 04:46:21;;;;;;;;;23.33;20.00;;;;;20.37;85.99;99922.81;6284778;20;3576396;-51
2023/07/10 04:48:49;;;;;;;;;25.67;25.67;;;;;20.75;83.43;99931.81;6284625;20;3598205;-46
2023/07/10 04:51:19;;;;;;;;;28.67;26.33;;;;;20.62;85.94;99934.06;6283361;20;3583730;-47
2023/07/10 04:53:48;;;;;;;;;23.33;22.33;;;;;20.79;84.21;99930.50;6285008;20;3596248;-51
2023/07/10 04:56:18;;;;;;;;;27.00;24.67;;;;;20.70;85.13;99928.69;6284987;20;3575251;-51
2023/07/10 04:58:56;;;;;;;;;21.33;21.33;;;;;20.83;85.87;99931.91;6281617;20;3592130;-49
2023/07/10 05:01:28;;;;;;;;;24.33;24.33;;;;;20.91;85.28;99924.84;6273604;20;3596114;-51
2023/07/10 05:03:57;;;;;;;;;22.67;22.67;;;;;21.11;85.57;99928.25;6281330;20;3600343;-49
2023/07/10 05:06:26;;;;;;;;;27.67;24.00;;;;;21.18;85.00;99926.63;6283592;20;3577389;-49
2023/07/10 05:08:59;;;;;;;;;22.67;22.67;;;;;21.41;87.07;99927.03;6287181;20;3589831;-50
2023/07/10 05:11:30;;;;;;;;;22.67;21.67;;;;;22.51;80.62;99934.53;6282287;20;3592026;-49
2023/07/10 05:14:00;;;;;;;;;20.33;18.67;;;;;22.25;80.48;99939.19;6281515;20;2836744;-50
2023/07/10 05:16:30;;;;;;;;;20.33;19.00;;;;;22.38;75.85;99942.34;6313590;20;3568000;-49
2023/07/10 05:18:58;;;;;;;;;22.67;20.00;;;;;22.30;75.81;99945.03;6280972;20;3587765;-47
2023/07/10 05:21:26;;;;;;;;;18.00;18.00;;;;;22.23;75.95;99939.38;6280112;20;3560872;-51
2023/07/10 05:23:55;;;;;;;;;22.00;20.67;;;;;22.26;76.50;99944.50;6313039;20;3579746;-51
2023/07/10 05:26:23;;;;;;;;;21.33;21.33;;;;;22.44;74.23;99941.69;6281345;20;3574453;-55
2023/07/10 05:28:51;;;;;;;;;20.00;18.67;;;;;22.58;71.50;99946.50;6283176;20;3576445;-48
2023/07/10 05:31:20;;;;;;;;;21.50;20.50;;;;;22.72;70.60;99945.03;6280165;20;2837914;-51
2023/07/10 05:33:50;;;;;;;;;19.00;19.00;;;;;23.04;70.04;99948.91;6286067;20;3579461;-53
2023/07/10 05:36:19;;;;;;;;;22.33;18.67;;;;;23.24;69.99;99954.91;6287392;20;3571141;-55
2023/07/10 05:38:48;;;;;;;;;19.00;19.00;;;;;23.43;70.36;99946.38;6284021;20;3571130;-46
2023/07/10 05:41:19;;;;;;;;;22.00;20.67;;;;;23.41;69.13;99945.69;6280249;20;3578650;-51
2023/07/10 05:43:47;;;;;;;;;21.00;19.00;;;;;23.63;67.49;99946.03;6284576;20;3570076;-49
2023/07/10 05:46:17;;;;;;;;;16.50;16.50;;;;;24.07;64.53;99951.13;6315220;20;2829516;-52
2023/07/10 05:48:46;;;;;;;;;18.67;18.67;;;;;24.05;64.18;99953.19;6283677;20;3568062;-50
2023/07/10 05:51:14;;;;;;;;;20.33;18.67;;;;;24.04;63.89;99951.47;6284042;20;3573168;-50
2023/07/10 05:53:42;;;;;;;;;19.00;19.00;;;;;24.42;65.50;99958.03;6282594;20;3546164;-49
2023/07/10 05:56:10;;;;;;;;;19.33;19.33;;;;;24.41;64.26;99960.94;6279731;20;3567961;-52
2023/07/10 05:58:42;;;;;;;;;15.33;15.00;;;;;24.67;63.95;99963.44;6283391;20;3536726;-46
2023/07/10 06:01:11;;;;;;;;;17.67;17.67;;;;;24.86;62.50;99964.91;6313140;20;3569137;-51
2023/07/10 06:03:39;;;;;;;;;14.50;13.50;;;;;24.89;62.00;99951.66;6284035;20;2806515;-48
2023/07/10 06:06:07;;;;;;;;;19.00;17.67;;;;;24.79;62.30;99955.69;6283577;20;3567986;-49
2023/07/10 06:08:37;;;;;;;;;19.00;17.67;;;;;25.04;61.81;99962.75;6288356;20;3565016;-49
2023/07/10 06:11:07;;;;;;;;;20.33;18.00;;;;;25.01;61.62;99963.09;6281378;20;3565343;-48
2023/07/10 06:13:36;;;;;;;;;17.33;17.33;;;;;25.22;58.81;99962.47;6282709;20;3544144;-50
2023/07/10 06:16:08;;;;;;;;;17.67;17.00;;;;;25.37;58.57;99955.13;6315461;20;3552346;-49
2023/07/10 06:18:39;;;;;;;;;22.00;20.33;;;;;25.40;59.00;99964.91;6283648;20;3572241;-52
2023/07/10 06:21:09;;;;;;;;;20.00;18.67;;;;;25.67;59.72;99962.63;6284994;20;3568002;-49
2023/07/10 06:23:37;;;;;;;;;17.00;17.00;;;;;25.84;59.85;99959.56;6283783;20;3541973;-50
2023/07/10 06:26:05;;;;;;;;;15.33;13.67;;;;;25.88;58.92;99957.28;6285123;20;3543001;-47
2023/07/10 06:28:35;;;;;;;;;19.00;19.00;;;;;26.24;58.27;99956.56;6313285;20;3570142;-49
2023/07/10 06:31:09;;;;;;;;;19.33;17.00;;;;;26.63;59.89;99955.47;6312372;20;3560669;-51
2023/07/10 06:33:38;;;;;;;;;18.33;18.33;;;;;26.61;55.81;99952.03;6312204;20;3571313;-54
2023/07/10 06:36:07;;;;;;;;;21.33;20.00;;;;;27.08;57.30;99950.69;6314260;20;3568018;-54
2023/07/10 06:38:36;;;;;;;;;20.33;20.00;;;;;27.42;55.77;99954.69;6284409;20;3573203;-52
2023/07/10 06:41:07;;;;;;;;;22.67;18.00;;;;;27.46;56.93;99958.72;6282393;20;3575284;-54
2023/07/10 06:43:36;;;;;;;;;20.00;18.67;;;;;27.85;54.91;99962.94;6282500;20;3573233;-54
2023/07/10 06:46:04;;;;;;;;;18.00;18.00;;;;;27.84;54.89;99961.22;6283130;20;3566924;-51
2023/07/10 06:48:33;;;;;;;;;15.00;15.00;;;;;28.54;53.68;99964.91;6283297;20;2809806;-55
2023/07/10 06:51:04;;;;;;;;;23.50;22.75;;;;;28.82;53.13;99967.59;6279705;20;3602473;-51
2023/07/10 06:53:38;;;;;;;;;20.43;19.86;;;;;28.94;52.63;99965.06;6330187;20;3583570;-52
2023/07/10 06:56:06;;;;;;;;;19.00;19.00;;;;;29.10;53.48;99960.06;6278485;20;3575321;-48
2023/07/10 06:58:35;;;;;;;;;20.67;20.67;;;;;29.18;54.87;99952.63;6282322;20;3578378;-51
2023/07/10 07:01:04;;;;;;;;;17.00;17.00;;;;;29.40;52.47;99954.16;6281465;20;3562778;-50
2023/07/10 07:03:33;;;;;;;;;19.00;18.00;;;;;29.93;52.52;99953.34;6276648;20;3566927;-49
2023/07/10 07:06:06;;;;;;;;;21.00;21.00;;;;;30.13;52.72;99958.88;6309777;20;3577448;-50
2023/07/10 07:08:38;;;;;;;;;20.71;19.86;;;;;30.48;50.73;99955.81;6330699;20;3568009;-53
2023/07/10 07:11:07;;;;;;;;;21.00;21.00;;;;;30.39;51.54;99953.28;6281564;20;3585778;-48
2023/07/10 07:13:37;;;;;;;;;20.57;20.57;;;;;30.60;51.53;99952.16;6327358;20;3569082;-52
2023/07/10 07:16:09;;;;;;;;;21.86;19.71;;;;;31.09;52.55;99952.59;6298864;20;3576325;-48
2023/07/10 07:18:37;;;;;;;;;19.67;19.00;;;;;30.71;50.10;99953.41;6280785;20;3570228;-44
2023/07/10 07:21:13;;;;;;;;;21.00;19.71;;;;;30.95;51.50;99954.59;6330644;20;3560800;-46
2023/07/10 07:23:42;;;;;;;;;21.00;21.00;;;;;31.11;51.71;99955.16;6280602;20;3579448;-49
2023/07/10 07:26:13;;;;;;;;;20.57;20.43;;;;;31.12;50.13;99956.84;6327173;20;3579433;-45
2023/07/10 07:28:43;;;;;;;;;20.00;19.00;;;;;30.92;51.18;99948.66;6283352;20;3569098;-48
2023/07/10 07:31:12;;;;;;;;;20.33;19.33;;;;;31.83;50.43;99955.72;6279183;20;3578410;-45
2023/07/10 07:33:41;;;;;;;;;21.33;20.00;;;;;31.20;48.87;99951.03;6275609;20;3577332;-45
2023/07/10 07:36:10;;;;;;;;;19.33;16.33;;;;;31.00;48.92;99948.41;6310083;20;3557673;-48
2023/07/10 07:38:41;;;;;;;;;19.43;19.43;;;;;31.87;48.18;99951.44;6327993;20;3564951;-48
2023/07/10 07:41:12;;;;;;;;;22.86;21.43;;;;;32.24;47.13;99951.53;6297793;20;3590062;-44
2023/07/10 07:43:40;;;;;;;;;17.33;16.67;;;;;32.35;47.15;99953.53;6280008;20;3549234;-47
2023/07/10 07:46:09;;;;;;;;;20.33;20.33;;;;;32.53;45.83;99952.72;6276175;20;3577367;-45
2023/07/10 07:48:38;;;;;;;;;17.00;17.00;;;;;32.70;45.23;99947.38;6282811;20;3560719;-45
2023/07/10 07:51:07;;;;;;;;;20.00;20.00;;;;;32.36;45.63;99946.88;6320039;20;3579396;-48
2023/07/10 07:53:41;;;;;;;;;22.33;19.67;;;;;32.34;45.18;99954.63;6285128;20;3583749;-46
2023/07/10 07:56:10;;;;;;;;;18.67;17.33;;;;;32.56;44.52;99941.97;6315881;20;3565020;-45
2023/07/10 07:58:38;;;;;;;;;11.00;11.00;;;;;33.13;40.21;99952.00;6314956;20;2783695;-47
2023/07/10 08:01:07;;;;;;;;;20.00;18.67;;;;;32.09;42.68;99944.38;6284542;20;3563833;-46
2023/07/10 08:03:35;;;;;;;;;19.67;18.67;;;;;32.75;41.48;99944.75;6288702;20;3573195;-50
2023/07/10 08:06:06;;;;;;;;;18.67;17.00;;;;;32.88;39.67;99947.34;6282844;20;3562803;-47
2023/07/10 08:08:35;;;;;;;;;17.00;17.00;;;;;32.84;39.24;99950.84;6314335;20;3562843;-44
2023/07/10 08:11:06;;;;;;;;;16.67;16.67;;;;;32.54;42.40;99941.34;6315368;20;3558716;-48
2023/07/10 08:13:37;;;;;;;;;17.71;16.71;;;;;32.29;40.97;99944.19;6334495;20;3555613;-47
2023/07/10 08:16:08;;;;;;;;;20.57;17.86;;;;;32.77;41.19;99940.66;6306136;20;3559707;-46
2023/07/10 08:18:36;;;;;;;;;17.00;17.00;;;;;33.41;40.42;99941.06;6287516;20;3564949;-45
2023/07/10 08:21:07;;;;;;;;;18.67;18.67;;;;;32.99;40.87;99935.44;6283911;20;3579513;-49
2023/07/10 08:23:36;;;;;;;;;18.67;16.33;;;;;33.53;39.34;99935.50;6287679;20;3567004;-45
2023/07/10 08:26:07;;;;;;;;;20.57;18.29;;;;;33.55;39.69;99940.91;6303674;20;3571208;-45
2023/07/10 08:28:38;;;;;;;;;18.71;16.14;;;;;32.85;41.04;99938.63;6315378;20;3566977;-46
2023/07/10 08:31:06;;;;;;;;;18.00;18.00;;;;;32.31;39.17;99939.25;6287121;20;3568196;-47
2023/07/10 08:33:35;;;;;;;;;16.33;16.33;;;;;32.98;37.07;99938.47;6286193;20;3561847;-52
2023/07/10 08:36:06;;;;;;;;;17.00;17.00;;;;;32.91;37.62;99934.91;6279833;20;3564860;-49
2023/07/10 08:38:38;;;;;;;;;15.33;15.33;;;;;32.46;38.68;99941.63;6315788;20;2815324;-49
2023/07/10 08:41:24;;;;;;;;;17.00;16.67;;;;;32.22;40.69;99940.63;6315073;20;3565036;-46
2023/07/10 08:43:55;;;;;;;;;18.14;17.43;;;;;32.19;40.37;99937.47;6332783;20;3556521;-45
2023/07/10 08:46:26;;;;;;;;;18.00;17.00;;;;;32.27;39.89;99942.72;6281086;20;3551330;-47
2023/07/10 08:49:15;;;;;;;;;18.67;16.00;;;;;32.42;38.94;99934.88;6285109;20;3568004;-47
2023/07/10 08:51:57;;;;;;;;;18.67;18.67;;;;;32.25;39.41;99928.19;6313412;20;3567031;-49
2023/07/10 08:54:28;;;;;;;;;18.71;16.14;;;;;32.50;40.32;99934.56;6332654;20;3566989;-46
2023/07/10 08:57:03;;;;;;;;;16.33;16.33;;;;;32.14;39.40;99933.44;6278645;20;3555467;-45
2023/07/10 09:00:06;;;;;;;;;20.00;18.00;;;;;32.36;39.26;99927.44;6283759;20;3558618;-44
2023/07/10 09:03:39;;;;;;;;;15.67;15.67;;;;;32.52;38.31;99923.25;6313852;20;3554943;-46
2023/07/10 09:06:19;;;;;;;;;18.00;17.00;;;;;32.73;39.00;99919.97;6278010;20;2836912;-50
2023/07/10 09:08:52;;;;;;;;;16.00;15.33;;;;;32.18;38.63;99922.72;6281538;20;3553410;-46
2023/07/10 09:11:22;;;;;;;;;13.67;13.33;;;;;32.66;38.06;99910.00;6282874;20;3531644;-48
2023/07/10 09:14:21;;;;;;;;;20.14;18.00;;;;;33.21;36.97;99916.31;6329693;20;3569035;-48
2023/07/10 09:16:53;;;;;;;;;20.67;18.00;;;;;33.74;36.29;99909.06;6280908;20;3566960;-49
2023/07/10 09:19:23;;;;;;;;;20.33;19.00;;;;;33.66;37.26;99917.78;6313033;20;3563972;-45
2023/07/10 09:21:54;;;;;;;;;17.57;17.14;;;;;34.01;37.14;99908.56;6335053;20;3569011;-53
2023/07/10 09:24:23;;;;;;;;;18.00;16.67;;;;;33.47;36.90;99907.75;6283338;20;3561722;-54
2023/07/10 09:26:52;;;;;;;;;17.67;17.67;;;;;32.97;37.57;99898.66;6279522;20;3562787;-54
2023/07/10 09:29:28;;;;;;;;;19.67;16.00;;;;;32.79;35.91;99907.06;6310424;20;3562858;-58
2023/07/10 09:32:14;;;;;;;;;16.33;16.33;;;;;33.74;35.66;99903.50;6311827;20;2829528;-54
2023/07/10 09:34:51;;;;;;;;;15.00;15.00;;;;;33.66;35.66;99901.91;6308689;20;2815064;-54
2023/07/10 09:37:24;;;;;;;;;18.00;16.67;;;;;33.27;34.01;99906.16;6316320;20;3550295;-52
2023/07/10 09:39:52;;;;;;;;;18.67;17.00;;;;;33.20;35.24;99897.94;6282875;20;3563982;-55
2023/07/10 09:42:31;;;;;;;;;18.67;17.67;;;;;33.14;34.57;99904.44;6275662;20;3554463;-55
2023/07/10 09:45:00;;;;;;;;;17.33;17.33;;;;;33.50;35.20;99902.59;6313407;20;3568034;-53
2023/07/10 09:47:40;;;;;;;;;17.33;16.67;;;;;33.60;33.75;99882.53;6309521;20;3566006;-52
2023/07/10 09:50:18;;;;;;;;;15.14;14.57;;;;;33.49;34.80;99888.88;6333557;20;3546123;-56
2023/07/10 09:52:55;;;;;;;;;15.67;15.67;;;;;33.44;34.39;99890.47;6312152;20;3556519;-56
2023/07/10 09:55:26;;;;;;;;;16.57;16.57;;;;;34.21;33.30;99884.00;6332430;20;3564861;-53
2023/07/10 09:58:00;;;;;;;;;19.00;19.00;;;;;34.03;32.93;99884.94;6279136;20;3564867;-54
2023/07/10 10:00:31;;;;;;;;;18.43;18.43;;;;;33.57;33.79;99875.50;6327017;20;3569099;-52
2023/07/10 10:03:24;;;;;;;;;16.00;15.00;;;;;33.95;34.75;99871.38;6276563;20;2823224;-52
2023/07/10 10:05:58;;;;;;;;;18.43;17.14;;;;;33.47;32.88;99880.78;6297679;20;3564851;-55
2023/07/10 10:08:34;;;;;;;;;20.00;20.00;;;;;33.34;33.31;99865.16;6280499;20;3575263;-56
2023/07/10 10:11:06;;;;;;;;;19.67;19.00;;;;;34.06;33.68;99870.56;6283053;20;3571134;-53
2023/07/10 10:13:47;;;;;;;;;18.00;17.00;;;;;34.19;33.69;99872.22;6282133;20;3514870;-55
2023/07/10 10:16:42;;;;;;;;;19.33;16.67;;;;;33.95;32.76;99865.81;6281626;20;3555573;-57
2023/07/10 10:19:32;;;;;;;;;19.00;19.00;;;;;34.34;33.77;99862.50;6277723;20;3571143;-53
2023/07/10 10:22:14;;;;;;;;;20.00;18.29;;;;;34.10;33.30;99857.00;6327227;20;3581637;-56
2023/07/10 10:24:46;;;;;;;;;19.86;18.14;;;;;34.17;34.48;99854.06;6299649;20;3555529;-53
2023/07/10 10:27:23;;;;;;;;;18.67;18.67;;;;;35.38;34.09;99856.72;6275863;20;3569008;-52
2023/07/10 10:30:00;;;;;;;;;18.43;17.14;;;;;34.39;33.24;99831.94;6332332;20;3554416;-58
2023/07/10 10:32:46;;;;;;;;;19.67;19.33;;;;;34.26;33.95;99847.88;6284315;20;3570101;-52
2023/07/10 10:35:49;;;;;;;;;18.33;17.67;;;;;33.57;33.62;99841.22;6281781;20;3565997;-51
2023/07/10 10:38:35;;;;;;;;;19.33;19.33;;;;;34.57;33.30;99839.28;6311194;20;3570175;-49
2023/07/10 10:41:27;;;;;;;;;18.86;18.71;;;;;34.48;33.86;99836.88;6333756;20;3577425;-53
2023/07/10 10:44:17;;;;;;;;;16.33;16.33;;;;;34.39;33.34;99831.94;6276786;20;3559675;-55
2023/07/10 10:47:35;;;;;;;;;19.43;19.43;;;;;34.69;33.54;99838.16;6328090;20;3583713;-59
2023/07/10 10:50:23;;;;;;;;;16.00;15.33;;;;;34.52;32.78;99831.63;6280029;20;3553402;-54
2023/07/10 10:53:21;;;;;;;;;20.67;19.67;;;;;34.65;33.84;99830.53;6278988;20;3578413;-52
2023/07/10 10:56:30;;;;;;;;;18.00;18.00;;;;;33.90;34.36;99821.13;6332770;20;3563834;-58
2023/07/10 10:59:33;;;;;;;;;19.71;19.71;;;;;35.22;33.85;99821.28;6301333;20;3573198;-55
2023/07/10 11:02:25;;;;;;;;;16.67;16.67;;;;;34.96;32.46;99826.38;6283459;20;3567111;-53
2023/07/10 11:05:22;;;;;;;;;21.33;19.00;;;;;34.46;33.03;99818.69;6281601;20;3578535;-52
2023/07/10 11:07:57;;;;;;;;;21.14;17.57;;;;;34.63;31.54;99819.66;6326727;20;3556592;-49
2023/07/10 11:10:36;;;;;;;;;21.29;17.86;;;;;35.05;31.35;99821.25;6295805;20;3560691;-51
2023/07/10 11:13:20;;;;;;;;;21.33;18.67;;;;;34.53;32.57;99811.88;6272338;20;3572138;-53
2023/07/10 11:15:51;;;;;;;;;19.71;19.71;;;;;34.65;33.24;99811.88;6329794;20;3571200;-56
2023/07/10 11:18:20;;;;;;;;;15.67;15.00;;;;;34.68;33.50;99807.75;6278898;20;3547266;-53
2023/07/10 11:20:49;;;;;;;;;20.00;19.33;;;;;35.22;32.52;99807.31;6278820;20;3579854;-55
2023/07/10 11:23:36;;;;;;;;;19.33;19.33;;;;;35.42;32.84;99813.25;6316991;20;3571132;-48
2023/07/10 11:26:14;;;;;;;;;20.33;20.33;;;;;35.19;32.60;99800.31;6287702;20;3584656;-50
2023/07/10 11:29:42;;;;;;;;;20.29;18.71;;;;;35.11;32.96;99815.53;6304079;20;3567033;-54